createdAt,value
2022-12-23T00:01:13.003Z,67.40
2022-12-23T00:03:39.724Z,74.20
2022-12-23T00:06:11.948Z,106.70
2022-12-23T00:08:39.159Z,79.30
2022-12-23T00:11:10.315Z,65.30
2022-12-23T00:13:36.846Z,70.50
2022-12-23T00:16:08.897Z,71.00
2022-12-23T00:18:35.706Z,75.70
2022-12-23T00:21:09.173Z,84.40
2022-12-23T00:23:39.630Z,105.60
2022-12-23T00:26:07.273Z,80.50
2022-12-23T00:28:34.115Z,71.30
2022-12-23T00:31:04.382Z,63.70
2022-12-23T00:33:37.319Z,66.50
2022-12-23T00:36:31.642Z,61.30
2022-12-23T00:38:59.821Z,56.40
2022-12-23T00:41:26.841Z,54.40
2022-12-23T00:43:53.379Z,54.90
2022-12-23T00:46:19.995Z,54.10
2022-12-23T00:48:46.559Z,53.90
2022-12-23T00:51:13.104Z,60.20
2022-12-23T00:53:39.606Z,72.00
2022-12-23T00:56:06.389Z,53.60
2022-12-23T00:58:32.932Z,49.00
2022-12-23T01:00:59.511Z,55.00
2022-12-23T01:03:26.135Z,51.70
2022-12-23T01:05:57.983Z,46.30
2022-12-23T01:08:24.623Z,47.60
2022-12-23T01:10:51.115Z,46.20
2022-12-23T01:13:17.709Z,43.60
2022-12-23T01:15:44.972Z,46.10
2022-12-23T01:18:11.619Z,46.30
2022-12-23T01:20:39.509Z,43.00
2022-12-23T01:23:06.951Z,44.30
2022-12-23T01:25:33.744Z,43.10
2022-12-23T01:28:00.226Z,45.80
2022-12-23T01:30:26.898Z,49.30
2022-12-23T01:32:53.335Z,48.30
2022-12-23T01:35:19.863Z,47.00
2022-12-23T01:37:46.283Z,47.20
2022-12-23T01:40:13.012Z,49.60
2022-12-23T01:42:39.682Z,48.40
2022-12-23T01:45:15.623Z,50.90
2022-12-23T01:47:49.875Z,48.70
2022-12-23T01:50:36.685Z,43.30
2022-12-23T01:53:07.186Z,39.00
2022-12-23T01:55:51.157Z,30.30
2022-12-23T01:58:36.895Z,36.80
2022-12-23T02:01:04.050Z,40.20
2022-12-23T02:03:31.231Z,49.40
2022-12-23T02:05:59.128Z,51.40
2022-12-23T02:08:25.671Z,42.30
2022-12-23T02:11:17.567Z,40.60
2022-12-23T02:14:05.815Z,39.40
2022-12-23T02:16:40.295Z,43.30
2022-12-23T02:19:22.896Z,48.50
2022-12-23T02:22:25.749Z,45.00
2022-12-23T02:25:02.472Z,49.40
2022-12-23T02:27:32.739Z,48.20
2022-12-23T02:30:40.839Z,45.30
2022-12-23T02:33:25.274Z,41.30
2022-12-23T02:36:01.409Z,40.70
2022-12-23T02:38:58.192Z,41.10
2022-12-23T02:41:49.218Z,41.00
2022-12-23T02:44:23.023Z,40.00
2022-12-23T02:46:57.441Z,35.90
2022-12-23T02:49:30.046Z,33.40
2022-12-23T02:51:59.736Z,34.10
2022-12-23T02:54:31.712Z,31.50
2022-12-23T02:57:02.245Z,33.70
2022-12-23T02:59:33.749Z,26.60
2022-12-23T03:02:01.146Z,36.80
2022-12-23T03:04:27.809Z,34.00
2022-12-23T03:06:56.960Z,36.40
2022-12-23T03:10:01.038Z,36.50
2022-12-23T03:12:33.959Z,37.50
2022-12-23T03:15:20.700Z,36.70
2022-12-23T03:17:53.727Z,34.00
2022-12-23T03:20:55.458Z,35.00
2022-12-23T03:23:29.329Z,35.90
2022-12-23T03:26:14.087Z,36.50
2022-12-23T03:28:50.914Z,36.90
2022-12-23T03:31:24.227Z,35.60
2022-12-23T03:34:00.103Z,35.00
2022-12-23T03:36:33.422Z,37.40
2022-12-23T03:39:04.570Z,33.10
2022-12-23T03:41:36.245Z,33.60
2022-12-23T03:44:09.937Z,32.70
2022-12-23T03:46:43.908Z,31.80
2022-12-23T03:49:21.033Z,31.90
2022-12-23T03:52:02.132Z,32.50
2022-12-23T03:54:38.704Z,34.40
2022-12-23T03:57:07.955Z,36.20
2022-12-23T03:59:39.160Z,37.60
2022-12-23T04:02:17.602Z,34.20
2022-12-23T04:04:56.104Z,35.80
2022-12-23T04:07:31.795Z,33.50
2022-12-23T04:09:59.750Z,32.30
2022-12-23T04:12:28.060Z,33.40
2022-12-23T04:14:54.695Z,31.20
2022-12-23T04:17:21.419Z,30.40
2022-12-23T04:19:47.910Z,30.30
2022-12-23T04:22:15.722Z,29.90
2022-12-23T04:24:42.993Z,29.10
2022-12-23T04:27:12.726Z,28.80
2022-12-23T04:29:39.260Z,29.30
2022-12-23T04:32:06.295Z,27.00
2022-12-23T04:34:32.766Z,27.90
2022-12-23T04:36:59.378Z,27.50
2022-12-23T04:39:25.924Z,27.10
2022-12-23T04:41:52.354Z,27.90
2022-12-23T04:44:18.789Z,27.50
2022-12-23T04:46:45.471Z,25.80
2022-12-23T04:49:12.175Z,27.20
2022-12-23T04:51:38.618Z,25.80
2022-12-23T04:54:05.261Z,25.00
2022-12-23T04:56:31.804Z,26.10
2022-12-23T04:58:58.199Z,30.80
2022-12-23T05:01:24.759Z,28.20
2022-12-23T05:03:51.323Z,26.70
2022-12-23T05:06:17.756Z,25.70
2022-12-23T05:08:44.299Z,25.50
2022-12-23T05:11:10.691Z,25.40
2022-12-23T05:13:37.139Z,26.20
2022-12-23T05:16:03.793Z,24.20
2022-12-23T05:18:30.246Z,26.70
2022-12-23T05:20:56.664Z,30.50
2022-12-23T05:23:23.225Z,36.20
2022-12-23T05:25:53.970Z,35.30
2022-12-23T05:28:21.818Z,33.20
2022-12-23T05:30:48.484Z,32.20
2022-12-23T05:33:15.902Z,30.40
2022-12-23T05:35:42.485Z,33.60
2022-12-23T05:38:09.020Z,34.50
2022-12-23T05:40:35.603Z,36.20
2022-12-23T05:43:02.425Z,35.70
2022-12-23T05:45:28.980Z,35.80
2022-12-23T05:47:55.602Z,36.80
2022-12-23T05:50:22.136Z,40.80
2022-12-23T05:52:48.675Z,60.50
2022-12-23T05:55:15.317Z,47.70
2022-12-23T05:57:41.748Z,40.20
2022-12-23T06:00:08.982Z,41.80
2022-12-23T06:02:35.549Z,39.90
2022-12-23T06:05:02.297Z,41.00
2022-12-23T06:07:28.880Z,40.70
2022-12-23T06:09:55.386Z,38.50
2022-12-23T06:12:21.809Z,37.10
2022-12-23T06:14:48.367Z,38.80
2022-12-23T06:17:14.793Z,40.30
2022-12-23T06:19:41.194Z,41.90
2022-12-23T06:22:07.692Z,48.50
2022-12-23T06:24:34.082Z,38.80
2022-12-23T06:27:00.539Z,41.10
2022-12-23T06:29:27.109Z,183.50
2022-12-23T06:31:53.629Z,64.60
2022-12-23T06:34:20.172Z,43.00
2022-12-23T06:36:46.733Z,37.40
2022-12-23T06:39:13.268Z,35.60
2022-12-23T06:41:39.770Z,34.90
2022-12-23T06:44:06.855Z,59.00
2022-12-23T06:46:33.244Z,38.60
2022-12-23T06:48:59.837Z,33.50
2022-12-23T06:51:26.376Z,34.60
2022-12-23T06:53:53.137Z,35.90
2022-12-23T06:56:19.768Z,35.20
2022-12-23T06:58:46.409Z,33.50
2022-12-23T07:01:13.601Z,33.40
2022-12-23T07:03:40.118Z,36.10
2022-12-23T07:06:07.215Z,33.80
2022-12-23T07:08:33.715Z,34.20
2022-12-23T07:11:01.513Z,34.50
2022-12-23T07:13:28.102Z,36.70
2022-12-23T07:15:54.761Z,34.90
2022-12-23T07:18:25.274Z,39.10
2022-12-23T07:20:52.371Z,42.00
2022-12-23T07:23:18.837Z,50.00
2022-12-23T07:25:45.345Z,47.90
2022-12-23T07:28:13.907Z,37.10
2022-12-23T07:30:40.332Z,43.50
2022-12-23T07:33:06.767Z,38.70
2022-12-23T07:35:33.303Z,39.10
2022-12-23T07:37:59.721Z,37.70
2022-12-23T07:40:27.256Z,39.30
2022-12-23T07:42:56.759Z,37.90
2022-12-23T07:45:23.748Z,83.30
2022-12-23T07:47:59.261Z,49.50
2022-12-23T07:50:27.729Z,47.40
2022-12-23T07:52:54.661Z,46.30
2022-12-23T07:55:21.609Z,43.60
2022-12-23T07:57:49.658Z,42.60
2022-12-23T08:00:16.347Z,41.20
2022-12-23T08:02:42.970Z,41.80
2022-12-23T08:05:10.549Z,43.00
2022-12-23T08:07:37.181Z,50.10
2022-12-23T08:10:04.957Z,52.50
2022-12-23T08:12:31.900Z,45.20
2022-12-23T08:14:58.429Z,58.50
2022-12-23T08:17:29.635Z,67.20
2022-12-23T08:19:56.849Z,124.10
2022-12-23T08:22:24.186Z,93.80
2022-12-23T08:24:50.631Z,105.90
2022-12-23T08:27:17.690Z,85.10
2022-12-23T08:29:44.529Z,98.50
2022-12-23T08:32:11.072Z,51.50
2022-12-23T08:34:37.569Z,55.10
2022-12-23T08:37:04.049Z,82.90
2022-12-23T08:39:30.520Z,82.20
2022-12-23T08:41:57.048Z,58.70
2022-12-23T08:44:23.579Z,71.20
2022-12-23T08:46:50.083Z,83.20
2022-12-23T08:49:16.649Z,54.80
2022-12-23T08:51:43.115Z,52.00
2022-12-23T08:54:09.629Z,60.70
2022-12-23T08:56:39.938Z,65.70
2022-12-23T08:59:06.722Z,62.30
2022-12-23T09:01:34.494Z,53.70
2022-12-23T09:04:06.360Z,52.60
2022-12-23T09:06:39.950Z,50.80
2022-12-23T09:09:07.296Z,61.00
2022-12-23T09:11:34.477Z,52.00
2022-12-23T09:14:02.545Z,65.90
2022-12-23T09:16:29.538Z,72.30
2022-12-23T09:18:56.572Z,62.20
2022-12-23T09:21:23.997Z,68.80
2022-12-23T09:23:51.873Z,72.10
2022-12-23T09:26:24.231Z,58.90
2022-12-23T09:28:51.111Z,55.70
2022-12-23T09:31:18.364Z,47.60
2022-12-23T09:33:48.105Z,45.90
2022-12-23T09:36:14.888Z,46.20
2022-12-23T09:38:41.449Z,41.20
2022-12-23T09:41:28.055Z,48.40
2022-12-23T09:44:39.356Z,57.90
2022-12-23T09:47:15.515Z,50.10
2022-12-23T09:49:52.367Z,53.20
2022-12-23T09:52:43.610Z,48.20
2022-12-23T09:55:11.964Z,49.60
2022-12-23T09:57:52.058Z,41.60
2022-12-23T10:00:19.397Z,52.10
2022-12-23T10:03:23.623Z,66.30
2022-12-23T10:06:16.199Z,40.60
2022-12-23T10:08:49.721Z,34.00
2022-12-23T10:11:21.232Z,31.60
2022-12-23T10:13:58.322Z,26.70
2022-12-23T10:16:38.928Z,22.80
2022-12-23T10:19:13.937Z,23.90
2022-12-23T10:21:48.464Z,23.50
2022-12-23T10:24:26.005Z,21.00
2022-12-23T10:27:06.112Z,25.50
2022-12-23T10:29:34.033Z,19.40
2022-12-23T10:32:28.380Z,19.80
2022-12-23T10:35:01.472Z,25.20
2022-12-23T10:37:45.210Z,19.90
2022-12-23T10:40:14.382Z,21.60
2022-12-23T10:43:19.566Z,23.20
2022-12-23T10:46:17.401Z,18.20
2022-12-23T10:49:06.586Z,20.70
2022-12-23T10:51:45.632Z,18.00
2022-12-23T10:54:17.636Z,21.80
2022-12-23T10:56:44.448Z,19.40
2022-12-23T10:59:15.134Z,20.10
2022-12-23T11:01:47.395Z,24.30
2022-12-23T11:04:17.936Z,19.50
2022-12-23T11:06:52.824Z,21.70
2022-12-23T11:09:37.934Z,21.20
2022-12-23T11:12:07.784Z,21.20
2022-12-23T11:14:52.488Z,21.30
2022-12-23T11:17:25.355Z,21.70
2022-12-23T11:20:06.997Z,34.20
2022-12-23T11:22:33.666Z,25.00
2022-12-23T11:25:17.945Z,25.40
2022-12-23T11:27:45.809Z,34.60
2022-12-23T11:30:19.385Z,26.30
2022-12-23T11:32:45.863Z,23.60
2022-12-23T11:35:31.240Z,25.90
2022-12-23T11:38:00.784Z,37.30
2022-12-23T11:40:30.461Z,41.10
2022-12-23T11:43:00.864Z,31.90
2022-12-23T11:45:32.780Z,42.50
2022-12-23T11:47:59.524Z,29.80
2022-12-23T11:50:30.475Z,30.00
2022-12-23T11:53:25.182Z,37.50
2022-12-23T11:56:03.401Z,64.10
2022-12-23T11:58:31.497Z,48.70
2022-12-23T12:01:00.464Z,83.40
2022-12-23T12:03:31.995Z,64.30
2022-12-23T12:06:02.224Z,41.30
2022-12-23T12:08:34.036Z,32.30
2022-12-23T12:11:06.117Z,26.30
2022-12-23T12:13:41.143Z,29.40
2022-12-23T12:16:32.505Z,27.50
2022-12-23T12:19:10.612Z,25.50
2022-12-23T12:21:38.834Z,25.90
2022-12-23T12:24:18.717Z,38.10
2022-12-23T12:26:51.567Z,30.60
2022-12-23T12:29:33.475Z,40.50
2022-12-23T12:32:01.523Z,61.70
2022-12-23T12:34:49.529Z,51.00
2022-12-23T12:37:21.979Z,29.70
2022-12-23T12:40:20.254Z,28.10
2022-12-23T12:42:56.521Z,25.40
2022-12-23T12:45:26.776Z,27.80
2022-12-23T12:48:13.098Z,33.30
2022-12-23T12:51:11.512Z,38.20
2022-12-23T12:53:50.968Z,41.60
2022-12-23T12:56:35.157Z,45.50
2022-12-23T12:59:01.707Z,45.80
2022-12-23T13:01:48.361Z,44.90
2022-12-23T13:04:33.762Z,44.90
2022-12-23T13:07:29.295Z,44.50
2022-12-23T13:10:03.408Z,46.10
2022-12-23T13:13:06.613Z,48.30
2022-12-23T13:15:50.255Z,51.80
2022-12-23T13:18:57.248Z,57.70
2022-12-23T13:21:48.442Z,82.50
2022-12-23T13:24:24.932Z,57.40
2022-12-23T13:27:35.933Z,61.40
2022-12-23T13:30:11.871Z,42.50
2022-12-23T13:32:56.944Z,42.60
2022-12-23T13:35:32.400Z,44.10
2022-12-23T13:38:23.205Z,47.30
2022-12-23T13:41:30.694Z,45.00
2022-12-23T13:44:05.646Z,41.90
2022-12-23T13:47:09.586Z,42.50
2022-12-23T13:50:18.001Z,41.20
2022-12-23T13:53:09.108Z,52.20
2022-12-23T13:55:55.525Z,45.30
2022-12-23T13:58:25.952Z,42.70
2022-12-23T14:01:08.523Z,41.40
2022-12-23T14:03:37.527Z,43.10
2022-12-23T14:06:25.205Z,46.10
2022-12-23T14:08:53.549Z,42.30
2022-12-23T14:11:33.434Z,46.00
2022-12-23T14:14:06.486Z,42.90
2022-12-23T14:16:49.121Z,47.70
2022-12-23T14:19:18.650Z,47.90
2022-12-23T14:22:13.214Z,58.80
2022-12-23T14:25:05.374Z,70.80
2022-12-23T14:27:55.788Z,68.20
2022-12-23T14:30:38.603Z,62.50
2022-12-23T14:33:14.970Z,61.60
2022-12-23T14:35:42.860Z,49.70
2022-12-23T14:38:15.752Z,52.90
2022-12-23T14:40:42.201Z,72.30
2022-12-23T14:43:31.641Z,131.40
2022-12-23T14:46:02.759Z,87.30
2022-12-23T14:48:44.444Z,79.40
2022-12-23T14:51:11.050Z,76.00
2022-12-23T14:54:00.395Z,66.50
2022-12-23T14:56:38.954Z,68.70
2022-12-23T14:59:08.407Z,74.30
2022-12-23T15:01:47.431Z,85.70
2022-12-23T15:04:14.025Z,66.50
2022-12-23T15:06:47.601Z,122.00
2022-12-23T15:09:27.990Z,177.40
2022-12-23T15:11:57.559Z,72.30
2022-12-23T15:14:38.254Z,77.60
2022-12-23T15:17:16.179Z,65.30
2022-12-23T15:19:47.238Z,78.50
2022-12-23T15:22:22.759Z,64.80
2022-12-23T15:24:52.118Z,86.20
2022-12-23T15:27:29.366Z,58.60
2022-12-23T15:29:57.788Z,59.00
2022-12-23T15:32:26.834Z,69.20
2022-12-23T15:35:02.388Z,64.00
2022-12-23T15:37:30.790Z,79.00
2022-12-23T15:40:11.607Z,88.60
2022-12-23T15:42:39.449Z,97.90
2022-12-23T15:45:40.476Z,115.10
2022-12-23T15:48:27.314Z,94.40
2022-12-23T15:50:58.654Z,89.70
2022-12-23T15:53:32.579Z,98.30
2022-12-23T15:56:04.229Z,116.80
2022-12-23T15:58:34.149Z,88.20
2022-12-23T16:01:01.750Z,115.80
2022-12-23T16:03:40.362Z,66.40
2022-12-23T16:06:09.702Z,95.50
2022-12-23T16:08:37.617Z,94.70
2022-12-23T16:11:36.638Z,90.30
2022-12-23T16:14:24.387Z,118.90
2022-12-23T16:16:52.314Z,86.10
2022-12-23T16:19:38.416Z,99.90
2022-12-23T16:22:20.376Z,80.60
2022-12-23T16:24:50.729Z,77.30
2022-12-23T16:27:25.645Z,111.30
2022-12-23T16:29:52.042Z,82.40
2022-12-23T16:32:19.986Z,90.70
2022-12-23T16:34:51.263Z,71.80
2022-12-23T16:37:17.724Z,84.60
2022-12-23T16:39:44.412Z,103.10
2022-12-23T16:42:11.029Z,93.00
2022-12-23T16:44:37.517Z,106.50
2022-12-23T16:47:13.105Z,119.50
2022-12-23T16:49:39.580Z,101.80
2022-12-23T16:52:07.180Z,100.40
2022-12-23T16:54:33.708Z,100.70
2022-12-23T16:57:00.332Z,90.70
2022-12-23T16:59:26.902Z,96.60
2022-12-23T17:01:56.553Z,101.00
2022-12-23T17:04:26.229Z,110.70
2022-12-23T17:06:52.688Z,113.20
2022-12-23T17:09:19.306Z,119.50
2022-12-23T17:11:53.060Z,150.30
2022-12-23T17:14:22.937Z,89.10
2022-12-23T17:16:50.568Z,88.90
2022-12-23T17:19:23.341Z,89.20
2022-12-23T17:21:59.700Z,84.10
2022-12-23T17:24:27.024Z,113.20
2022-12-23T17:26:54.586Z,109.40
2022-12-23T17:29:21.131Z,81.20
2022-12-23T17:31:48.741Z,99.90
2022-12-23T17:34:17.720Z,79.90
2022-12-23T17:36:49.944Z,90.80
2022-12-23T17:39:18.044Z,88.80
2022-12-23T17:41:44.523Z,91.70
2022-12-23T17:44:14.345Z,83.20
2022-12-23T17:46:41.052Z,82.30
2022-12-23T17:49:08.736Z,104.60
2022-12-23T17:51:35.476Z,99.60
2022-12-23T17:54:01.871Z,121.00
2022-12-23T17:56:28.835Z,121.20
2022-12-23T17:58:55.404Z,141.70
2022-12-23T18:01:29.030Z,153.20
2022-12-23T18:03:57.663Z,146.80
2022-12-23T18:06:25.649Z,165.10
2022-12-23T18:08:52.176Z,178.10
2022-12-23T18:11:30.283Z,147.40
2022-12-23T18:13:57.145Z,83.60
2022-12-23T18:16:23.921Z,79.30
2022-12-23T18:18:50.537Z,79.60
2022-12-23T18:21:25.586Z,79.70
2022-12-23T18:23:54.463Z,84.10
2022-12-23T18:26:21.201Z,92.90
2022-12-23T18:28:47.777Z,96.90
2022-12-23T18:31:21.562Z,96.60
2022-12-23T18:33:48.361Z,87.30
2022-12-23T18:36:27.921Z,90.70
2022-12-23T18:38:54.995Z,77.60
2022-12-23T18:41:22.185Z,73.70
2022-12-23T18:43:49.519Z,75.60
2022-12-23T18:46:16.911Z,82.10
2022-12-23T18:48:43.702Z,69.70
2022-12-23T18:51:14.027Z,73.00
2022-12-23T18:53:40.664Z,78.80
2022-12-23T18:56:10.160Z,81.90
2022-12-23T18:58:36.607Z,80.10
2022-12-23T19:01:03.078Z,71.00
2022-12-23T19:03:31.329Z,76.00
2022-12-23T19:05:59.235Z,75.50
2022-12-23T19:08:27.685Z,74.90
2022-12-23T19:10:55.259Z,80.80
2022-12-23T19:13:21.810Z,88.30
2022-12-23T19:15:48.484Z,89.90
2022-12-23T19:18:17.636Z,103.10
2022-12-23T19:20:45.786Z,97.60
2022-12-23T19:23:13.187Z,112.60
2022-12-23T19:25:52.600Z,125.30
2022-12-23T19:28:22.093Z,206.80
2022-12-23T19:30:49.116Z,218.60
2022-12-23T19:33:16.046Z,218.00
2022-12-23T19:35:43.184Z,213.20
2022-12-23T19:38:10.028Z,210.00
2022-12-23T19:40:36.557Z,218.30
2022-12-23T19:43:03.209Z,197.60
2022-12-23T19:45:30.004Z,193.90
2022-12-23T19:47:56.502Z,180.50
2022-12-23T19:50:23.000Z,157.20
2022-12-23T19:52:49.580Z,146.70
2022-12-23T19:55:16.418Z,178.30
2022-12-23T19:57:42.884Z,178.70
2022-12-23T20:00:10.118Z,177.30
2022-12-23T20:02:36.560Z,192.80
2022-12-23T20:05:04.633Z,157.60
2022-12-23T20:07:31.180Z,179.30
2022-12-23T20:09:57.792Z,164.80
2022-12-23T20:12:24.238Z,159.70
2022-12-23T20:14:50.667Z,152.30
2022-12-23T20:17:17.133Z,139.70
2022-12-23T20:19:46.185Z,152.20
2022-12-23T20:22:13.089Z,226.40
2022-12-23T20:24:39.641Z,176.20
2022-12-23T20:27:10.919Z,152.20
2022-12-23T20:29:38.457Z,144.50
2022-12-23T20:32:05.353Z,143.50
2022-12-23T20:34:38.434Z,134.80
2022-12-23T20:37:08.338Z,154.40
2022-12-23T20:39:35.495Z,157.00
2022-12-23T20:42:02.024Z,120.00
2022-12-23T20:44:37.332Z,111.70
2022-12-23T20:47:07.276Z,111.60
2022-12-23T20:49:33.795Z,119.60
2022-12-23T20:52:00.847Z,116.30
2022-12-23T20:54:32.694Z,118.90
2022-12-23T20:57:01.944Z,115.90
2022-12-23T20:59:29.093Z,119.60
2022-12-23T21:01:56.875Z,143.60
2022-12-23T21:04:23.302Z,148.50
2022-12-23T21:06:50.152Z,139.00
2022-12-23T21:09:17.017Z,153.10
2022-12-23T21:11:45.875Z,130.10
2022-12-23T21:14:14.566Z,151.30
2022-12-23T21:16:41.833Z,118.40
2022-12-23T21:19:13.467Z,102.80
2022-12-23T21:21:40.009Z,102.60
2022-12-23T21:24:06.589Z,97.50
2022-12-23T21:26:34.620Z,99.60
2022-12-23T21:29:03.209Z,95.70
2022-12-23T21:31:31.736Z,109.10
2022-12-23T21:33:58.826Z,105.30
2022-12-23T21:36:28.204Z,105.60
2022-12-23T21:38:54.742Z,100.00
2022-12-23T21:41:30.135Z,93.10
2022-12-23T21:43:58.117Z,93.10
2022-12-23T21:46:25.002Z,89.00
2022-12-23T21:48:52.386Z,94.60
2022-12-23T21:51:34.855Z,80.10
2022-12-23T21:54:05.387Z,95.40
2022-12-23T21:56:32.126Z,106.10
2022-12-23T21:59:01.385Z,108.10
2022-12-23T22:01:29.087Z,100.70
2022-12-23T22:03:56.749Z,88.10
2022-12-23T22:06:36.338Z,100.50
2022-12-23T22:09:04.482Z,91.00
2022-12-23T22:11:33.430Z,72.70
2022-12-23T22:14:01.326Z,80.00
2022-12-23T22:16:30.070Z,61.10
2022-12-23T22:18:58.342Z,61.10
2022-12-23T22:21:26.804Z,69.20
2022-12-23T22:23:54.898Z,71.00
2022-12-23T22:26:26.389Z,75.00
2022-12-23T22:28:55.488Z,95.90
2022-12-23T22:31:37.900Z,88.70
2022-12-23T22:34:05.848Z,76.90
2022-12-23T22:36:33.415Z,60.20
2022-12-23T22:39:01.815Z,61.80
2022-12-23T22:41:29.790Z,56.00
2022-12-23T22:43:58.025Z,57.40
2022-12-23T22:46:25.647Z,63.10
2022-12-23T22:48:52.762Z,68.00
2022-12-23T22:51:24.999Z,97.10
2022-12-23T22:53:51.961Z,103.40
2022-12-23T22:56:20.576Z,86.50
2022-12-23T22:58:47.168Z,83.20
2022-12-23T23:01:28.634Z,75.90
2022-12-23T23:06:24.402Z,74.20
2022-12-23T23:08:50.902Z,55.20
2022-12-23T23:11:17.924Z,46.80
2022-12-23T23:13:44.460Z,51.20
2022-12-23T23:16:10.980Z,43.90
2022-12-23T23:18:37.644Z,46.30
2022-12-23T23:21:04.263Z,47.20
2022-12-23T23:23:30.821Z,48.30
2022-12-23T23:25:57.243Z,49.50
2022-12-23T23:28:23.674Z,45.20
2022-12-23T23:31:03.577Z,49.70
2022-12-23T23:33:36.914Z,53.90
2022-12-23T23:36:04.017Z,71.80
2022-12-23T23:38:30.955Z,55.40
2022-12-23T23:40:58.727Z,64.60
2022-12-23T23:43:25.193Z,50.70
2022-12-23T23:45:52.080Z,49.70
2022-12-23T23:48:19.687Z,47.50
2022-12-23T23:50:46.617Z,57.50
2022-12-23T23:53:14.023Z,62.50
2022-12-23T23:55:41.152Z,63.90
2022-12-23T23:58:08.255Z,61.60
